Time;durP1;ratioP1;P1;durP2;ratioP2;P2;SDS_P1;SDS_P2;PMS_P1;PMS_P2;Temp;Humidity;BMP_temperature;BMP_pressure;BME280_temperature;BME280_humidity;BME280_pressure;Samples;Min_cycle;Max_cycle;Signal;HPM_P1;HPM_P2
2022/10/03 00:01:31;;;;;;;7.73;1.70;;;12.10;99.90;;;;;;4956550;28;20247;-55
2022/10/03 00:04:13;;;;;;;6.83;1.53;;;12.10;99.90;;;;;;4963925;28;20236;-54
2022/10/03 00:06:49;;;;;;;10.50;2.00;;;12.10;99.90;;;;;;4975953;28;20271;-55
2022/10/03 00:09:40;;;;;;;10.20;2.13;;;12.10;99.90;;;;;;4976491;28;20229;-55
2022/10/03 00:12:18;;;;;;;9.47;2.00;;;12.10;99.90;;;;;;4976694;28;20284;-54
2022/10/03 00:14:56;;;;;;;7.70;1.50;;;12.00;99.90;;;;;;4963805;28;20246;-55
2022/10/03 00:17:31;;;;;;;10.33;1.63;;;12.00;99.90;;;;;;4970772;28;20280;-54
2022/10/03 00:20:08;;;;;;;12.07;2.13;;;11.90;99.90;;;;;;4982706;28;20746;-54
2022/10/03 00:22:40;;;;;;;14.97;2.00;;;11.80;99.90;;;;;;4976117;28;20696;-55
2022/10/03 00:25:29;;;;;;;7.73;1.80;;;11.80;99.90;;;;;;4975656;28;20250;-55
2022/10/03 00:28:12;;;;;;;7.13;1.57;;;11.90;99.90;;;;;;4976472;28;20692;-55
2022/10/03 00:30:51;;;;;;;9.17;1.70;;;11.80;99.90;;;;;;4990484;28;20244;-55
2022/10/03 00:33:29;;;;;;;11.10;2.33;;;11.80;99.90;;;;;;4974911;28;20278;-54
2022/10/03 00:36:06;;;;;;;8.67;2.03;;;11.80;99.90;;;;;;4956460;28;20263;-54
2022/10/03 00:39:31;;;;;;;11.07;1.67;;;11.90;99.90;;;;;;4956444;29;20237;-55
2022/10/03 00:42:35;;;;;;;7.83;2.00;;;11.90;99.90;;;;;;4935652;29;20245;-54
2022/10/03 00:45:35;;;;;;;9.50;2.10;;;11.90;99.90;;;;;;4926900;29;20240;-54
2022/10/03 00:48:36;;;;;;;10.70;1.90;;;11.90;99.90;;;;;;4952578;28;20716;-55
2022/10/03 00:51:19;;;;;;;9.27;1.57;;;11.90;99.90;;;;;;4976574;28;20242;-54
2022/10/03 00:53:58;;;;;;;9.37;1.83;;;12.00;99.90;;;;;;4971936;28;20232;-54
2022/10/03 00:56:51;;;;;;;7.63;1.57;;;11.80;99.90;;;;;;4956364;29;20727;-54
2022/10/03 00:59:33;;;;;;;7.17;1.60;;;11.80;99.90;;;;;;4952107;28;20247;-54
2022/10/03 01:02:24;;;;;;;6.03;1.63;;;11.80;99.90;;;;;;4967868;28;20239;-54
2022/10/03 01:05:03;;;;;;;8.60;1.70;;;11.80;99.90;;;;;;4975408;28;20249;-55
2022/10/03 01:08:03;;;;;;;6.37;1.33;;;11.70;99.90;;;;;;4975607;28;20608;-54
2022/10/03 01:10:43;;;;;;;6.67;1.93;;;11.70;99.90;;;;;;4975043;28;20260;-54
2022/10/03 01:13:30;;;;;;;7.20;1.67;;;11.60;99.90;;;;;;4955687;28;20279;-54
2022/10/03 01:16:12;;;;;;;7.83;1.63;;;11.60;99.90;;;;;;4958496;28;20236;-55
2022/10/03 01:18:51;;;;;;;7.80;1.67;;;11.60;99.90;;;;;;4981236;28;20248;-55
2022/10/03 01:21:32;;;;;;;6.17;1.40;;;11.50;99.90;;;;;;4972002;28;20691;-54
2022/10/03 01:24:34;;;;;;;9.97;2.10;;;11.40;99.90;;;;;;4974126;28;20633;-54
2022/10/03 01:27:04;;;;;;;9.93;1.67;;;11.40;99.90;;;;;;4972317;28;20231;-54
2022/10/03 01:32:43;;;;;;;9.30;1.57;;;11.30;99.90;;;;;;4974312;28;20240;-54
2022/10/03 01:35:21;;;;;;;8.37;1.57;;;11.30;99.90;;;;;;4968265;28;20228;-54
2022/10/03 01:37:56;;;;;;;6.53;1.57;;;11.30;99.90;;;;;;4975464;28;20238;-54
2022/10/03 01:40:29;;;;;;;7.60;2.07;;;11.30;99.90;;;;;;4975353;28;20694;-54
2022/10/03 01:43:10;;;;;;;7.57;1.77;;;11.30;99.90;;;;;;4974650;28;20233;-54
2022/10/03 01:45:52;;;;;;;11.07;1.80;;;11.30;99.90;;;;;;4974660;28;20702;-54
2022/10/03 01:48:27;;;;;;;10.30;2.20;;;11.30;99.90;;;;;;4978021;28;20698;-54
2022/10/03 01:51:03;;;;;;;7.73;1.43;;;11.40;99.90;;;;;;4976815;28;20714;-53
2022/10/03 01:53:40;;;;;;;6.83;2.00;;;11.40;99.90;;;;;;4975508;28;20234;-55
2022/10/03 01:56:15;;;;;;;11.60;1.80;;;11.40;99.90;;;;;;4974505;28;20288;-55
2022/10/03 01:58:53;;;;;;;7.17;1.53;;;11.40;99.90;;;;;;4974378;28;20233;-55
2022/10/03 02:01:29;;;;;;;8.80;1.77;;;11.30;99.90;;;;;;4974259;28;20731;-55
2022/10/03 02:04:04;;;;;;;9.07;1.83;;;11.30;99.90;;;;;;4974966;28;20570;-55
2022/10/03 02:06:43;;;;;;;6.23;1.30;;;11.40;99.90;;;;;;4975046;28;20689;-54
2022/10/03 02:09:23;;;;;;;9.43;1.60;;;11.50;99.90;;;;;;4974169;28;20244;-55
2022/10/03 02:12:04;;;;;;;10.27;1.90;;;11.50;99.90;;;;;;4974998;28;20280;-54
2022/10/03 02:14:48;;;;;;;9.00;2.00;;;11.50;99.90;;;;;;4975185;28;20601;-55
2022/10/03 02:17:29;;;;;;;8.03;1.70;;;11.40;99.90;;;;;;4974168;28;20229;-52
2022/10/03 02:20:07;;;;;;;8.70;1.50;;;11.40;99.90;;;;;;4979566;28;20697;-54
2022/10/03 02:22:42;;;;;;;8.20;1.87;;;11.30;99.90;;;;;;4974724;28;20234;-53
2022/10/03 02:25:22;;;;;;;8.83;1.73;;;11.20;99.90;;;;;;4977321;28;20245;-55
2022/10/03 02:28:32;;;;;;;5.63;1.20;;;11.20;99.90;;;;;;4974416;28;20230;-54
2022/10/03 02:31:28;;;;;;;4.33;1.10;;;11.10;99.90;;;;;;4959193;28;20242;-54
2022/10/03 02:34:23;;;;;;;7.83;1.70;;;11.20;99.90;;;;;;4960196;29;20243;-55
2022/10/03 02:37:21;;;;;;;6.17;1.30;;;11.00;99.90;;;;;;4959788;28;20239;-55
2022/10/03 02:40:16;;;;;;;5.90;1.40;;;11.00;99.90;;;;;;4959389;29;20241;-54
2022/10/03 02:43:19;;;;;;;8.57;1.80;;;10.90;99.90;;;;;;4959409;28;20266;-54
2022/10/03 02:46:32;;;;;;;7.13;1.27;;;11.00;99.90;;;;;;4959541;28;20758;-54
2022/10/03 02:50:03;;;;;;;9.23;1.27;;;11.10;99.90;;;;;;4978812;28;20726;-54
2022/10/03 02:53:08;;;;;;;9.13;1.30;;;11.10;99.90;;;;;;4978246;28;20235;-54
2022/10/03 02:56:15;;;;;;;9.00;1.50;;;11.10;99.90;;;;;;4978578;28;20688;-54
2022/10/03 02:59:06;;;;;;;6.83;1.40;;;11.10;99.90;;;;;;4967815;28;20679;-54
2022/10/03 03:02:00;;;;;;;5.83;1.17;;;11.00;99.90;;;;;;4958639;28;20245;-55
2022/10/03 03:05:05;;;;;;;9.40;1.80;;;11.10;99.90;;;;;;4958431;29;20232;-55
2022/10/03 03:07:58;;;;;;;8.17;1.70;;;10.90;99.90;;;;;;4975218;28;20285;-55
2022/10/03 03:10:41;;;;;;;8.93;1.37;;;10.80;99.90;;;;;;4958577;29;20692;-54
2022/10/03 03:13:41;;;;;;;8.43;1.50;;;10.80;99.90;;;;;;4958516;29;20229;-55
2022/10/03 03:16:32;;;;;;;9.47;1.80;;;10.70;99.90;;;;;;4961512;28;20223;-54
2022/10/03 03:19:31;;;;;;;6.73;1.83;;;10.70;99.90;;;;;;4981801;28;20694;-54
2022/10/03 03:22:09;;;;;;;6.03;1.20;;;10.80;99.90;;;;;;4976732;28;20644;-54
2022/10/03 03:25:00;;;;;;;8.10;1.43;;;10.80;99.90;;;;;;4976876;28;20232;-54
2022/10/03 03:27:46;;;;;;;9.07;1.43;;;10.70;99.90;;;;;;4973517;28;20240;-54
2022/10/03 03:30:18;;;;;;;8.23;1.50;;;10.60;99.90;;;;;;4957324;28;20240;-54
2022/10/03 03:33:03;;;;;;;5.93;1.40;;;10.60;99.90;;;;;;4958073;29;20236;-53
2022/10/03 03:35:42;;;;;;;6.27;1.23;;;10.60;99.90;;;;;;4957105;28;20228;-55
2022/10/03 03:38:20;;;;;;;7.90;1.60;;;10.60;99.90;;;;;;4963487;28;20228;-54
2022/10/03 03:41:06;;;;;;;9.60;1.67;;;10.50;99.90;;;;;;4977162;28;20229;-55
2022/10/03 03:44:05;;;;;;;9.87;1.70;;;10.60;99.90;;;;;;4977316;28;20231;-54
2022/10/03 03:46:47;;;;;;;6.17;1.33;;;10.60;99.90;;;;;;4972776;28;20700;-54
2022/10/03 03:49:30;;;;;;;7.20;1.40;;;10.50;99.90;;;;;;4976178;28;20239;-54
2022/10/03 03:52:17;;;;;;;9.03;2.00;;;10.50;99.90;;;;;;4976728;28;20239;-54
2022/10/03 03:55:00;;;;;;;14.03;1.70;;;10.50;99.90;;;;;;4977143;28;20247;-55
2022/10/03 03:57:48;;;;;;;6.47;1.47;;;10.50;99.90;;;;;;4959928;28;20245;-55
2022/10/03 04:00:20;;;;;;;7.03;1.87;;;10.40;99.90;;;;;;4957085;28;20228;-54
2022/10/03 04:03:09;;;;;;;6.47;1.40;;;10.40;99.90;;;;;;4957518;29;20239;-54
2022/10/03 04:05:56;;;;;;;10.53;1.70;;;10.40;99.90;;;;;;4958829;28;20230;-54
2022/10/03 04:08:44;;;;;;;9.30;1.83;;;10.50;99.90;;;;;;4976772;28;20297;-54
2022/10/03 04:11:27;;;;;;;9.70;1.60;;;10.40;99.90;;;;;;4976955;28;20237;-55
2022/10/03 04:14:37;;;;;;;11.50;2.03;;;10.30;99.90;;;;;;4976642;28;20227;-54
2022/10/03 04:20:22;;;;;;;6.73;1.37;;;10.40;99.90;;;;;;4981071;28;20234;-54
2022/10/03 04:23:06;;;;;;;9.10;1.77;;;10.30;99.90;;;;;;4974548;28;20279;-53
2022/10/03 04:25:53;;;;;;;6.50;1.70;;;10.30;99.90;;;;;;4973073;28;20621;-54
2022/10/03 04:28:39;;;;;;;9.87;2.03;;;10.30;99.90;;;;;;4974956;28;20751;-54
2022/10/03 04:31:22;;;;;;;11.97;1.97;;;10.20;99.90;;;;;;4975019;28;20278;-54
2022/10/03 04:34:02;;;;;;;7.70;1.53;;;10.30;99.90;;;;;;4973475;28;20227;-55
2022/10/03 04:36:58;;;;;;;10.13;1.73;;;10.40;99.90;;;;;;4970799;28;20254;-54
2022/10/03 04:39:34;;;;;;;13.33;2.00;;;10.40;99.90;;;;;;4974987;28;20233;-54
2022/10/03 04:42:12;;;;;;;7.43;2.00;;;10.40;99.90;;;;;;4975859;28;20283;-54
2022/10/03 04:44:58;;;;;;;7.33;1.60;;;10.40;99.90;;;;;;4974929;28;20237;-55
2022/10/03 04:47:32;;;;;;;7.23;1.70;;;10.40;99.90;;;;;;4972726;28;20321;-54
2022/10/03 04:50:10;;;;;;;8.33;1.50;;;10.40;99.90;;;;;;4975882;28;20293;-54
2022/10/03 04:52:42;;;;;;;6.47;1.50;;;10.40;99.90;;;;;;4973584;28;20222;-54
2022/10/03 04:55:24;;;;;;;11.47;2.07;;;10.30;99.90;;;;;;4975399;28;20235;-54
2022/10/03 04:58:00;;;;;;;11.57;1.57;;;10.30;99.90;;;;;;4975543;28;20239;-54
2022/10/03 05:00:40;;;;;;;6.37;1.90;;;10.20;99.90;;;;;;4975391;28;20744;-54
2022/10/03 05:03:20;;;;;;;9.77;1.70;;;10.20;99.90;;;;;;4975753;28;20325;-54
2022/10/03 05:05:53;;;;;;;6.80;1.73;;;10.20;99.90;;;;;;4962268;28;20228;-54
2022/10/03 05:08:41;;;;;;;7.70;1.63;;;10.10;99.90;;;;;;4956454;28;20222;-54
2022/10/03 05:11:19;;;;;;;9.70;1.50;;;10.20;99.90;;;;;;4975455;28;20230;-54
2022/10/03 05:13:59;;;;;;;6.50;1.53;;;10.30;99.90;;;;;;4975132;28;20217;-54
2022/10/03 05:16:36;;;;;;;11.00;2.30;;;10.20;99.90;;;;;;4974992;28;20238;-55
2022/10/03 05:19:26;;;;;;;9.93;2.53;;;10.20;99.90;;;;;;4973644;28;20277;-54
2022/10/03 05:22:00;;;;;;;8.30;1.60;;;10.10;99.90;;;;;;4974900;28;20226;-54
2022/10/03 05:24:36;;;;;;;7.20;1.60;;;10.20;99.90;;;;;;4974560;28;20232;-54
2022/10/03 05:27:19;;;;;;;7.13;1.77;;;10.20;99.90;;;;;;4975340;28;20241;-54
2022/10/03 05:29:57;;;;;;;10.53;1.97;;;10.10;99.90;;;;;;4974158;28;20242;-54
2022/10/03 05:32:30;;;;;;;10.47;1.80;;;10.10;99.90;;;;;;4971048;28;20665;-54
2022/10/03 05:35:21;;;;;;;10.73;1.80;;;10.20;99.90;;;;;;4965533;28;20254;-54
2022/10/03 05:38:08;;;;;;;8.63;1.90;;;10.20;99.90;;;;;;4955778;29;20227;-55
2022/10/03 05:40:41;;;;;;;12.20;1.93;;;10.20;99.90;;;;;;4955470;28;20238;-54
2022/10/03 05:43:26;;;;;;;8.00;1.80;;;10.20;99.90;;;;;;4955352;29;20691;-54
2022/10/03 05:46:01;;;;;;;10.60;2.07;;;10.30;99.90;;;;;;4971150;28;20230;-55
2022/10/03 05:48:44;;;;;;;8.27;1.77;;;10.30;99.90;;;;;;4978503;28;20242;-54
2022/10/03 05:51:45;;;;;;;12.23;1.50;;;10.30;99.90;;;;;;4966579;28;20235;-54
2022/10/03 05:55:04;;;;;;;12.23;2.00;;;10.30;99.90;;;;;;4966470;28;20238;-53
2022/10/03 05:58:01;;;;;;;9.23;1.67;;;10.20;99.90;;;;;;4938162;29;20324;-54
2022/10/03 06:00:41;;;;;;;15.33;2.00;;;10.30;99.90;;;;;;4938804;29;20227;-54
2022/10/03 06:03:43;;;;;;;7.97;1.83;;;10.40;99.90;;;;;;4970380;28;20694;-54
2022/10/03 06:06:21;;;;;;;9.80;1.87;;;10.40;99.90;;;;;;4970303;28;20621;-54
2022/10/03 06:09:20;;;;;;;10.63;2.03;;;10.60;99.90;;;;;;4973458;28;20697;-54
2022/10/03 06:12:13;;;;;;;8.70;1.63;;;10.60;99.90;;;;;;4974435;28;20633;-54
2022/10/03 06:15:11;;;;;;;8.07;2.10;;;10.70;99.90;;;;;;4952407;28;20231;-54
2022/10/03 06:17:57;;;;;;;9.23;2.10;;;10.80;99.90;;;;;;4949550;28;20297;-54
2022/10/03 06:21:19;;;;;;;10.23;2.30;;;10.70;99.90;;;;;;4973991;28;20238;-53
2022/10/03 06:24:39;;;;;;;11.30;2.27;;;10.90;99.90;;;;;;4960151;28;20269;-54
2022/10/03 06:27:38;;;;;;;8.70;2.10;;;11.10;99.90;;;;;;4943207;28;20249;-55
2022/10/03 06:30:21;;;;;;;11.57;2.47;;;11.10;99.90;;;;;;4973428;28;20236;-55
2022/10/03 06:33:31;;;;;;;8.33;1.80;;;11.20;99.90;;;;;;4972018;28;20235;-55
2022/10/03 06:36:32;;;;;;;10.40;1.67;;;11.20;99.90;;;;;;4926173;28;20226;-54
2022/10/03 06:39:54;;;;;;;9.23;1.90;;;11.20;99.90;;;;;;4970526;28;20230;-55
2022/10/03 06:42:54;;;;;;;7.33;1.80;;;11.20;99.90;;;;;;4971579;28;20234;-54
2022/10/03 06:46:15;;;;;;;12.17;2.30;;;11.20;99.90;;;;;;4971436;28;20239;-54
2022/10/03 06:49:34;;;;;;;15.07;1.97;;;11.30;99.90;;;;;;4915862;29;20244;-54
2022/10/03 06:52:35;;;;;;;9.87;2.53;;;11.20;99.90;;;;;;4972711;28;20235;-57
2022/10/03 06:55:39;;;;;;;14.03;2.37;;;11.20;99.90;;;;;;4968243;28;20704;-55
2022/10/03 06:58:32;;;;;;;12.33;2.50;;;11.30;99.90;;;;;;4971987;28;20229;-54
2022/10/03 07:01:24;;;;;;;12.27;3.03;;;11.30;99.90;;;;;;4971256;28;20236;-55
2022/10/03 07:04:30;;;;;;;9.47;3.20;;;11.40;99.90;;;;;;4973398;28;20734;-55
2022/10/03 07:07:27;;;;;;;14.00;4.30;;;11.30;99.90;;;;;;4971709;28;20235;-55
2022/10/03 07:10:12;;;;;;;10.40;2.53;;;11.30;99.90;;;;;;4973867;28;20247;-55
2022/10/03 07:13:10;;;;;;;11.50;2.23;;;11.30;99.90;;;;;;4976735;28;20710;-54
2022/10/03 07:16:00;;;;;;;9.60;2.67;;;11.50;99.90;;;;;;4965245;28;20232;-54
2022/10/03 07:19:14;;;;;;;12.37;2.10;;;11.60;99.90;;;;;;4980461;28;20223;-54
2022/10/03 07:22:21;;;;;;;21.77;3.27;;;11.90;99.90;;;;;;4974785;28;20240;-55
2022/10/03 07:25:31;;;;;;;10.27;2.83;;;12.10;99.90;;;;;;4956972;29;20234;-55
2022/10/03 07:28:47;;;;;;;8.97;2.23;;;12.30;99.90;;;;;;4975414;28;20231;-55
2022/10/03 07:31:27;;;;;;;10.07;2.50;;;12.50;99.90;;;;;;4935119;29;20243;-55
2022/10/03 07:34:18;;;;;;;11.40;2.30;;;12.70;99.90;;;;;;4935728;29;20797;-55
2022/10/03 07:40:44;;;;;;;13.30;2.43;;;13.00;99.90;;;;;;4968936;28;20232;-55
2022/10/03 07:43:48;;;;;;;10.37;2.47;;;13.20;99.90;;;;;;4969754;28;20236;-55
2022/10/03 07:46:55;;;;;;;9.47;2.40;;;13.20;99.90;;;;;;4969759;28;21740;-55
2022/10/03 07:49:43;;;;;;;7.03;2.23;;;13.40;99.90;;;;;;4944625;28;20241;-55
2022/10/03 07:52:42;;;;;;;9.70;2.07;;;13.70;99.90;;;;;;4968413;28;20252;-55
2022/10/03 07:55:37;;;;;;;8.93;2.40;;;14.00;99.90;;;;;;4962778;28;20237;-55
2022/10/03 07:58:28;;;;;;;11.60;2.47;;;14.30;99.90;;;;;;4970223;28;20717;-55
2022/10/03 08:01:17;;;;;;;8.27;2.07;;;14.50;99.90;;;;;;4964452;28;20241;-55
2022/10/03 08:04:39;;;;;;;7.77;1.80;;;14.60;99.90;;;;;;4954227;28;20823;-55
2022/10/03 08:07:28;;;;;;;7.17;1.80;;;15.00;99.90;;;;;;4896719;29;20238;-54
2022/10/03 08:10:09;;;;;;;8.07;1.80;;;15.30;99.90;;;;;;4952592;28;20246;-55
2022/10/03 08:13:16;;;;;;;10.30;1.50;;;15.40;99.90;;;;;;4954218;28;20227;-54
2022/10/03 08:16:02;;;;;;;8.53;1.83;;;15.60;99.90;;;;;;4950983;28;20751;-54
2022/10/03 08:18:53;;;;;;;10.00;1.97;;;16.00;99.90;;;;;;4953238;28;20274;-55
2022/10/03 08:21:30;;;;;;;7.20;1.47;;;16.40;99.90;;;;;;4968180;28;20233;-55
2022/10/03 08:24:27;;;;;;;7.73;1.80;;;16.70;99.90;;;;;;4971287;28;20685;-55
2022/10/03 08:27:13;;;;;;;10.47;2.20;;;16.40;99.90;;;;;;4962400;28;20677;-55
2022/10/03 08:30:32;;;;;;;8.07;2.00;;;16.00;99.90;;;;;;4968867;28;20235;-55
2022/10/03 08:33:13;;;;;;;9.70;1.70;;;15.90;99.90;;;;;;4968360;28;20253;-55
2022/10/03 08:36:12;;;;;;;7.27;1.60;;;16.00;99.90;;;;;;4966769;28;20226;-55
2022/10/03 08:38:54;;;;;;;7.80;1.90;;;16.10;99.90;;;;;;4968234;28;20218;-53
2022/10/03 08:42:07;;;;;;;7.47;2.13;;;16.00;99.90;;;;;;4972293;28;20689;-55
2022/10/03 08:45:08;;;;;;;9.03;1.83;;;16.50;99.90;;;;;;4970419;28;20237;-55
2022/10/03 08:48:37;;;;;;;6.30;1.53;;;16.50;99.90;;;;;;4956370;28;20234;-55
2022/10/03 08:51:30;;;;;;;7.80;1.67;;;16.30;99.90;;;;;;4971230;28;20234;-55
2022/10/03 08:54:14;;;;;;;9.30;1.90;;;16.00;99.90;;;;;;4972563;28;20226;-55
2022/10/03 08:56:58;;;;;;;9.57;1.70;;;15.90;99.90;;;;;;4968127;28;20230;-55
2022/10/03 09:00:05;;;;;;;6.43;1.50;;;15.80;99.90;;;;;;4972107;28;20226;-55
2022/10/03 09:03:09;;;;;;;9.07;1.93;;;15.70;99.90;;;;;;4969593;28;20722;-55
2022/10/03 09:06:36;;;;;;;9.33;1.97;;;16.00;99.90;;;;;;4971459;28;20634;-55
2022/10/03 09:10:08;;;;;;;7.53;1.70;;;16.20;99.90;;;;;;4963339;28;20704;-55
2022/10/03 09:12:59;;;;;;;13.13;2.20;;;16.60;99.90;;;;;;4971733;28;20223;-55
2022/10/03 09:15:55;;;;;;;8.83;2.00;;;16.70;99.90;;;;;;4972395;28;20222;-55
2022/10/03 09:18:50;;;;;;;8.30;2.00;;;17.10;99.90;;;;;;4970667;28;20226;-55
2022/10/03 09:22:01;;;;;;;10.70;2.07;;;17.00;99.90;;;;;;4959958;28;20222;-56
2022/10/03 09:25:02;;;;;;;10.63;2.20;;;17.50;99.90;;;;;;4914040;29;20236;-55
2022/10/03 09:27:43;;;;;;;6.20;2.00;;;17.80;99.90;;;;;;4968367;28;20219;-55
2022/10/03 09:30:23;;;;;;;8.03;1.83;;;17.70;99.90;;;;;;4973822;28;20563;-55
2022/10/03 09:33:31;;;;;;;7.20;2.10;;;17.30;99.90;;;;;;4964707;28;20749;-56
2022/10/03 09:36:10;;;;;;;10.43;1.80;;;16.90;99.90;;;;;;4972132;28;20715;-56
2022/10/03 09:39:11;;;;;;;12.60;1.63;;;16.90;99.90;;;;;;4955456;28;20233;-56
2022/10/03 09:42:17;;;;;;;6.60;1.80;;;17.40;99.90;;;;;;4969050;28;20237;-56
2022/10/03 09:45:24;;;;;;;10.10;1.93;;;17.50;99.90;;;;;;4960031;28;20235;-56
2022/10/03 09:48:12;;;;;;;6.80;1.73;;;17.70;99.90;;;;;;4967786;28;20227;-55
2022/10/03 09:51:11;;;;;;;11.23;2.03;;;17.90;99.90;;;;;;4973799;28;20230;-56
2022/10/03 09:54:00;;;;;;;7.97;2.03;;;17.70;99.90;;;;;;4960546;28;20227;-56
2022/10/03 09:57:11;;;;;;;7.13;1.30;;;17.40;99.90;;;;;;4964444;28;20583;-56
2022/10/03 10:00:15;;;;;;;10.03;1.77;;;17.00;99.90;;;;;;4968139;28;20222;-56
2022/10/03 10:03:36;;;;;;;11.73;1.80;;;16.60;99.90;;;;;;4952047;28;20253;-55
2022/10/03 10:06:27;;;;;;;11.67;2.03;;;16.50;99.90;;;;;;4971219;28;20230;-55
2022/10/03 10:09:30;;;;;;;8.20;1.63;;;16.40;99.90;;;;;;4967827;28;20298;-55
2022/10/03 10:12:40;;;;;;;7.03;1.67;;;16.40;99.90;;;;;;4954799;28;20235;-55
2022/10/03 10:15:41;;;;;;;7.47;1.47;;;16.50;99.90;;;;;;4966924;28;20224;-55
2022/10/03 10:18:39;;;;;;;8.20;1.47;;;17.10;99.90;;;;;;4956953;28;20226;-55
2022/10/03 10:21:45;;;;;;;5.90;1.37;;;17.10;99.90;;;;;;4965769;28;20233;-55
2022/10/03 10:24:45;;;;;;;7.33;1.70;;;16.70;99.90;;;;;;4973545;28;20226;-56
2022/10/03 10:28:10;;;;;;;9.77;1.80;;;16.60;99.90;;;;;;4972296;28;20218;-55
2022/10/03 10:31:06;;;;;;;11.30;1.90;;;16.80;99.90;;;;;;4961052;28;20313;-55
2022/10/03 10:34:14;;;;;;;6.73;1.40;;;17.00;99.90;;;;;;4945978;28;20231;-55
2022/10/03 10:37:29;;;;;;;8.43;1.80;;;16.80;99.90;;;;;;4963770;28;20283;-55
2022/10/03 10:40:31;;;;;;;9.10;1.57;;;16.70;99.90;;;;;;4971491;28;20717;-55
2022/10/03 10:43:37;;;;;;;9.00;1.50;;;16.60;99.90;;;;;;4969513;28;20252;-56
2022/10/03 10:46:49;;;;;;;8.00;1.90;;;16.60;99.90;;;;;;4958589;28;20301;-55
2022/10/03 10:49:45;;;;;;;7.90;1.70;;;16.80;99.90;;;;;;4975860;28;20639;-55
2022/10/03 10:53:09;;;;;;;10.67;2.33;;;17.00;99.90;;;;;;4972726;28;20279;-55
2022/10/03 10:56:07;;;;;;;8.77;1.73;;;17.50;99.90;;;;;;4961361;28;20224;-55
2022/10/03 10:59:15;;;;;;;10.17;1.90;;;18.00;99.90;;;;;;4965160;28;20225;-55
2022/10/03 11:02:17;;;;;;;8.47;1.70;;;17.90;99.90;;;;;;4967568;28;20576;-55
2022/10/03 11:05:35;;;;;;;6.90;1.30;;;17.50;99.90;;;;;;4958516;28;20238;-55
2022/10/03 11:08:33;;;;;;;8.43;1.30;;;17.10;99.90;;;;;;4974587;28;20237;-55
2022/10/03 11:11:45;;;;;;;8.37;1.53;;;17.10;99.90;;;;;;4974909;28;20224;-55
2022/10/03 11:14:47;;;;;;;6.07;1.40;;;17.20;99.90;;;;;;4961401;28;20227;-56
2022/10/03 11:17:57;;;;;;;8.37;1.63;;;17.10;99.90;;;;;;4970006;28;20257;-55
2022/10/03 11:21:10;;;;;;;8.77;1.33;;;16.90;99.90;;;;;;4967521;28;20226;-55
2022/10/03 11:24:19;;;;;;;9.50;1.63;;;17.00;99.90;;;;;;4949798;29;20224;-55
2022/10/03 11:27:17;;;;;;;6.57;1.63;;;17.60;99.90;;;;;;4976087;28;20235;-55
2022/10/03 11:30:06;;;;;;;7.93;1.60;;;18.30;99.90;;;;;;4975779;28;20233;-56
2022/10/03 11:33:23;;;;;;;9.13;1.63;;;18.30;99.90;;;;;;4972364;28;20300;-56
2022/10/03 11:36:29;;;;;;;8.90;1.60;;;18.00;99.90;;;;;;4974454;28;20629;-55
2022/10/03 11:39:04;;;;;;;7.60;1.47;;;17.90;99.90;;;;;;4969712;28;20234;-56
2022/10/03 11:41:45;;;;;;;7.73;1.50;;;17.90;99.90;;;;;;4964231;28;20231;-56
2022/10/03 11:44:24;;;;;;;8.73;1.90;;;17.80;99.90;;;;;;4971606;28;21030;-56
2022/10/03 11:47:02;;;;;;;8.83;1.87;;;17.50;99.90;;;;;;4964142;28;20238;-53
2022/10/03 11:50:01;;;;;;;7.40;1.47;;;17.40;99.90;;;;;;4975021;28;20703;-56
2022/10/03 11:52:35;;;;;;;8.10;1.50;;;17.40;99.90;;;;;;4969899;28;20238;-56
2022/10/03 11:55:16;;;;;;;9.50;1.70;;;17.70;99.90;;;;;;4974116;28;20609;-55
2022/10/03 11:57:57;;;;;;;5.03;1.20;;;17.80;99.90;;;;;;4974334;28;20230;-56
2022/10/03 12:00:28;;;;;;;5.07;1.53;;;17.90;99.90;;;;;;4975621;28;20627;-55
2022/10/03 12:03:16;;;;;;;4.03;1.20;;;17.80;99.90;;;;;;4970157;28;20234;-56
2022/10/03 12:08:53;;;;;;;7.97;2.10;;;17.40;99.90;;;;;;4975214;28;20232;-56
2022/10/03 12:08:58;;;;;;;7.20;1.20;;;16.90;99.90;;;;;;4970849;28;20230;-55
2022/10/03 12:11:33;;;;;;;6.97;1.37;;;16.60;99.90;;;;;;4973728;28;20227;-56
2022/10/03 12:14:23;;;;;;;10.13;1.67;;;16.50;99.90;;;;;;4961106;28;20211;-56
2022/10/03 12:17:04;;;;;;;5.90;1.20;;;16.40;99.90;;;;;;4963293;28;20226;-56
2022/10/03 12:19:38;;;;;;;7.00;1.43;;;16.40;99.90;;;;;;4969254;28;20223;-56
2022/10/03 12:22:21;;;;;;;7.07;1.27;;;16.40;99.90;;;;;;4968662;28;20721;-55
2022/10/03 12:24:50;;;;;;;7.90;1.30;;;16.30;99.90;;;;;;4956544;28;20243;-55
2022/10/03 12:27:29;;;;;;;7.13;1.73;;;16.20;99.90;;;;;;4954936;28;20231;-56
2022/10/03 12:29:59;;;;;;;6.13;1.53;;;16.20;99.90;;;;;;4952932;28;20235;-55
2022/10/03 12:32:35;;;;;;;8.33;1.57;;;16.20;99.90;;;;;;4952535;28;20231;-56
2022/10/03 12:35:15;;;;;;;9.10;1.40;;;16.30;99.90;;;;;;4955503;28;20222;-56
2022/10/03 12:38:04;;;;;;;6.63;1.70;;;16.40;99.90;;;;;;4953280;28;20235;-56
2022/10/03 12:40:38;;;;;;;3.77;1.17;;;16.50;99.90;;;;;;4955013;28;20239;-56
2022/10/03 12:43:24;;;;;;;7.03;1.30;;;16.60;99.90;;;;;;4953923;28;20236;-55
2022/10/03 12:46:00;;;;;;;5.67;1.30;;;16.60;99.90;;;;;;4952277;28;20718;-56
2022/10/03 12:48:42;;;;;;;5.63;1.50;;;16.60;99.90;;;;;;4952490;28;20321;-56
2022/10/03 12:51:26;;;;;;;6.73;1.73;;;16.70;99.90;;;;;;4952590;28;20723;-56
2022/10/03 12:54:05;;;;;;;5.17;1.30;;;16.70;99.90;;;;;;4954367;28;20238;-55
2022/10/03 12:56:44;;;;;;;7.20;1.47;;;16.70;99.90;;;;;;4954720;28;20699;-56
2022/10/03 12:59:32;;;;;;;5.40;1.20;;;16.70;99.90;;;;;;4951860;28;20255;-56
2022/10/03 13:02:29;;;;;;;5.57;1.23;;;16.90;99.90;;;;;;4953626;28;20230;-55
2022/10/03 13:05:28;;;;;;;8.03;1.80;;;16.90;99.90;;;;;;4952316;28;20286;-56
2022/10/03 13:08:06;;;;;;;9.23;1.63;;;16.80;99.90;;;;;;4952259;28;20593;-56
2022/10/03 13:10:41;;;;;;;4.07;1.07;;;16.80;99.90;;;;;;4954551;28;20235;-56
2022/10/03 13:13:24;;;;;;;8.80;1.37;;;16.90;99.90;;;;;;4953998;28;20223;-55
2022/10/03 13:16:17;;;;;;;6.97;1.60;;;16.90;99.90;;;;;;4954507;28;20227;-55
2022/10/03 13:18:59;;;;;;;5.03;1.50;;;17.10;99.90;;;;;;4955231;28;20346;-54
2022/10/03 13:22:02;;;;;;;7.70;1.90;;;17.10;99.90;;;;;;4953129;28;20763;-56
2022/10/03 13:24:36;;;;;;;8.17;1.70;;;17.20;99.90;;;;;;4953733;28;20255;-55
2022/10/03 13:27:16;;;;;;;7.57;1.57;;;17.20;99.90;;;;;;4955410;28;20224;-55
2022/10/03 13:29:47;;;;;;;9.87;1.77;;;17.10;99.90;;;;;;4952757;28;20306;-56
2022/10/03 13:32:32;;;;;;;7.80;1.57;;;16.90;99.90;;;;;;4950503;28;20251;-55
2022/10/03 13:38:35;;;;;;;11.70;2.23;;;16.80;99.90;;;;;;4953411;28;20699;-56
2022/10/03 13:41:24;;;;;;;6.87;1.33;;;16.80;99.90;;;;;;4951201;28;20255;-55
2022/10/03 13:44:16;;;;;;;7.93;1.40;;;16.80;99.90;;;;;;4954927;28;20239;-56
2022/10/03 13:46:52;;;;;;;8.90;1.43;;;16.80;99.90;;;;;;4952506;28;20271;-55
2022/10/03 13:49:32;;;;;;;6.53;1.43;;;16.70;99.90;;;;;;4953437;28;20277;-55
2022/10/03 13:52:06;;;;;;;9.53;2.23;;;16.50;99.90;;;;;;4954130;28;20223;-56
2022/10/03 13:55:05;;;;;;;8.20;1.63;;;16.40;99.90;;;;;;4954049;28;20239;-56
2022/10/03 13:57:38;;;;;;;7.07;1.47;;;16.30;99.90;;;;;;4951068;28;20708;-56
2022/10/03 14:00:11;;;;;;;6.80;1.60;;;16.20;99.90;;;;;;4954194;28;20238;-55
2022/10/03 14:03:00;;;;;;;7.00;1.73;;;16.10;99.90;;;;;;4951688;28;20239;-55
2022/10/03 14:06:00;;;;;;;6.03;1.47;;;15.90;99.90;;;;;;4952646;28;20728;-56
2022/10/03 14:08:59;;;;;;;10.47;2.00;;;16.00;99.90;;;;;;4949767;28;20246;-56
2022/10/03 14:11:37;;;;;;;7.70;1.67;;;16.10;99.90;;;;;;4950828;28;20754;-55
2022/10/03 14:14:33;;;;;;;10.20;1.70;;;16.10;99.90;;;;;;4979855;28;20229;-54
2022/10/03 14:17:08;;;;;;;8.47;1.90;;;16.20;99.90;;;;;;4953024;28;20232;-56
2022/10/03 14:19:49;;;;;;;7.00;1.63;;;16.20;99.90;;;;;;4953160;28;20282;-56
2022/10/03 14:22:46;;;;;;;6.00;1.23;;;16.20;99.90;;;;;;4955077;28;20242;-57
2022/10/03 14:25:25;;;;;;;8.23;1.50;;;16.30;99.90;;;;;;4957743;28;20275;-55
2022/10/03 14:28:01;;;;;;;5.00;1.40;;;16.20;99.90;;;;;;4954952;28;20774;-56
2022/10/03 14:30:36;;;;;;;8.10;1.80;;;16.20;99.90;;;;;;4954450;28;20590;-54
2022/10/03 14:33:19;;;;;;;5.90;1.50;;;16.10;99.90;;;;;;4956066;28;20282;-56
2022/10/03 14:36:08;;;;;;;6.40;1.50;;;16.00;99.90;;;;;;4954480;28;20231;-56
2022/10/03 14:39:12;;;;;;;8.77;1.60;;;16.00;99.90;;;;;;4953575;28;20314;-55
2022/10/03 14:42:09;;;;;;;7.03;1.87;;;16.00;99.90;;;;;;4953439;28;20702;-56
2022/10/03 14:44:44;;;;;;;7.47;1.73;;;16.00;99.90;;;;;;4953304;28;20238;-56
2022/10/03 14:47:15;;;;;;;6.60;1.53;;;15.90;99.90;;;;;;4957179;28;20227;-55
2022/10/03 14:49:50;;;;;;;6.13;1.50;;;16.00;99.90;;;;;;4957152;28;20723;-55
2022/10/03 14:52:33;;;;;;;10.93;1.70;;;15.90;99.90;;;;;;4956422;28;20648;-56
2022/10/03 14:55:14;;;;;;;8.43;1.70;;;15.90;99.90;;;;;;4954340;28;20254;-56
2022/10/03 14:57:47;;;;;;;6.53;1.50;;;15.80;99.90;;;;;;4954200;28;20718;-55